sensor_id;sensor_type;location;lat;lon;timestamp;P1;durP1;ratioP1;P2;durP2;ratioP2
22995;SDS011;11664;49.774;8.650;2023-04-03T00:02:47;4.38;;;4.07;;
22995;SDS011;11664;49.774;8.650;2023-04-03T00:05:18;5.00;;;4.60;;
22995;SDS011;11664;49.774;8.650;2023-04-03T00:07:51;4.18;;;3.88;;
22995;SDS011;11664;49.774;8.650;2023-04-03T00:10:20;4.93;;;4.43;;
22995;SDS011;11664;49.774;8.650;2023-04-03T00:12:46;6.28;;;5.70;;
22995;SDS011;11664;49.774;8.650;2023-04-03T00:15:18;7.32;;;4.40;;
22995;SDS011;11664;49.774;8.650;2023-04-03T00:17:46;5.53;;;4.70;;
22995;SDS011;11664;49.774;8.650;2023-04-03T00:22:57;6.40;;;5.88;;
22995;SDS011;11664;49.774;8.650;2023-04-03T00:25:28;4.90;;;4.50;;
22995;SDS011;11664;49.774;8.650;2023-04-03T00:28:03;5.10;;;4.32;;
22995;SDS011;11664;49.774;8.650;2023-04-03T00:30:38;5.82;;;4.80;;
22995;SDS011;11664;49.774;8.650;2023-04-03T00:33:04;6.45;;;5.85;;
22995;SDS011;11664;49.774;8.650;2023-04-03T00:35:42;4.90;;;4.43;;
22995;SDS011;11664;49.774;8.650;2023-04-03T00:38:14;4.95;;;4.50;;
22995;SDS011;11664;49.774;8.650;2023-04-03T00:40:44;11.60;;;5.07;;
22995;SDS011;11664;49.774;8.650;2023-04-03T00:43:16;4.50;;;4.20;;
22995;SDS011;11664;49.774;8.650;2023-04-03T00:45:49;5.88;;;4.55;;
22995;SDS011;11664;49.774;8.650;2023-04-03T00:48:31;6.00;;;5.33;;
22995;SDS011;11664;49.774;8.650;2023-04-03T00:51:03;8.85;;;5.65;;
22995;SDS011;11664;49.774;8.650;2023-04-03T00:53:37;5.13;;;4.68;;
22995;SDS011;11664;49.774;8.650;2023-04-03T00:56:06;5.65;;;4.57;;
22995;SDS011;11664;49.774;8.650;2023-04-03T00:58:45;6.07;;;4.90;;
22995;SDS011;11664;49.774;8.650;2023-04-03T01:01:45;5.85;;;5.22;;
22995;SDS011;11664;49.774;8.650;2023-04-03T01:04:26;4.55;;;4.25;;
22995;SDS011;11664;49.774;8.650;2023-04-03T01:07:03;4.85;;;4.45;;
22995;SDS011;11664;49.774;8.650;2023-04-03T01:09:35;4.40;;;4.00;;
22995;SDS011;11664;49.774;8.650;2023-04-03T01:14:55;5.72;;;5.32;;
22995;SDS011;11664;49.774;8.650;2023-04-03T01:25:53;7.85;;;7.15;;
22995;SDS011;11664;49.774;8.650;2023-04-03T01:34:00;6.10;;;5.63;;
22995;SDS011;11664;49.774;8.650;2023-04-03T01:36:32;9.30;;;8.50;;
22995;SDS011;11664;49.774;8.650;2023-04-03T01:39:00;11.25;;;10.55;;
22995;SDS011;11664;49.774;8.650;2023-04-03T01:41:35;11.85;;;11.05;;
22995;SDS011;11664;49.774;8.650;2023-04-03T01:44:01;16.08;;;14.88;;
22995;SDS011;11664;49.774;8.650;2023-04-03T01:46:30;8.50;;;7.65;;
22995;SDS011;11664;49.774;8.650;2023-04-03T01:48:56;9.13;;;7.57;;
22995;SDS011;11664;49.774;8.650;2023-04-03T01:51:25;9.57;;;7.13;;
22995;SDS011;11664;49.774;8.650;2023-04-03T01:53:50;8.65;;;7.05;;
22995;SDS011;11664;49.774;8.650;2023-04-03T01:56:19;8.52;;;7.65;;
22995;SDS011;11664;49.774;8.650;2023-04-03T01:58:48;9.35;;;8.52;;
22995;SDS011;11664;49.774;8.650;2023-04-03T02:01:13;12.02;;;11.18;;
22995;SDS011;11664;49.774;8.650;2023-04-03T02:03:40;10.65;;;9.60;;
22995;SDS011;11664;49.774;8.650;2023-04-03T02:06:05;9.48;;;8.85;;
22995;SDS011;11664;49.774;8.650;2023-04-03T02:08:31;7.00;;;6.50;;
22995;SDS011;11664;49.774;8.650;2023-04-03T02:11:02;6.00;;;5.57;;
22995;SDS011;11664;49.774;8.650;2023-04-03T02:13:32;4.82;;;4.45;;
22995;SDS011;11664;49.774;8.650;2023-04-03T02:15:57;6.07;;;5.57;;
22995;SDS011;11664;49.774;8.650;2023-04-03T02:18:24;5.40;;;4.90;;
22995;SDS011;11664;49.774;8.650;2023-04-03T02:20:54;6.32;;;5.82;;
22995;SDS011;11664;49.774;8.650;2023-04-03T02:23:20;7.25;;;6.65;;
22995;SDS011;11664;49.774;8.650;2023-04-03T02:25:45;7.13;;;6.50;;
22995;SDS011;11664;49.774;8.650;2023-04-03T02:28:20;5.80;;;5.30;;
22995;SDS011;11664;49.774;8.650;2023-04-03T02:30:46;6.72;;;4.63;;
22995;SDS011;11664;49.774;8.650;2023-04-03T02:33:11;5.10;;;4.35;;
22995;SDS011;11664;49.774;8.650;2023-04-03T02:35:37;8.13;;;7.53;;
22995;SDS011;11664;49.774;8.650;2023-04-03T02:38:13;6.32;;;5.82;;
22995;SDS011;11664;49.774;8.650;2023-04-03T02:40:38;6.70;;;6.13;;
22995;SDS011;11664;49.774;8.650;2023-04-03T02:43:13;7.35;;;6.80;;
22995;SDS011;11664;49.774;8.650;2023-04-03T02:45:41;6.88;;;5.55;;
22995;SDS011;11664;49.774;8.650;2023-04-03T02:48:10;7.45;;;6.93;;
22995;SDS011;11664;49.774;8.650;2023-04-03T02:50:52;11.13;;;10.35;;
22995;SDS011;11664;49.774;8.650;2023-04-03T02:53:17;9.90;;;9.10;;
22995;SDS011;11664;49.774;8.650;2023-04-03T02:55:43;7.18;;;6.72;;
22995;SDS011;11664;49.774;8.650;2023-04-03T02:58:09;8.20;;;7.55;;
22995;SDS011;11664;49.774;8.650;2023-04-03T03:00:50;8.57;;;8.13;;
22995;SDS011;11664;49.774;8.650;2023-04-03T03:03:37;9.15;;;8.43;;
22995;SDS011;11664;49.774;8.650;2023-04-03T03:09:03;6.63;;;6.22;;
22995;SDS011;11664;49.774;8.650;2023-04-03T03:11:41;6.03;;;5.50;;
22995;SDS011;11664;49.774;8.650;2023-04-03T03:14:10;5.38;;;4.95;;
22995;SDS011;11664;49.774;8.650;2023-04-03T03:16:47;6.10;;;5.60;;
22995;SDS011;11664;49.774;8.650;2023-04-03T03:19:13;5.72;;;5.00;;
22995;SDS011;11664;49.774;8.650;2023-04-03T03:21:41;6.30;;;5.90;;
22995;SDS011;11664;49.774;8.650;2023-04-03T03:24:16;6.75;;;5.70;;
22995;SDS011;11664;49.774;8.650;2023-04-03T03:26:54;7.43;;;6.88;;
22995;SDS011;11664;49.774;8.650;2023-04-03T03:29:22;6.97;;;6.40;;
22995;SDS011;11664;49.774;8.650;2023-04-03T03:31:51;6.53;;;5.78;;
22995;SDS011;11664;49.774;8.650;2023-04-03T03:34:23;4.75;;;4.35;;
22995;SDS011;11664;49.774;8.650;2023-04-03T03:36:54;5.50;;;5.00;;
22995;SDS011;11664;49.774;8.650;2023-04-03T03:39:20;4.90;;;4.60;;
22995;SDS011;11664;49.774;8.650;2023-04-03T03:41:52;5.38;;;5.05;;
22995;SDS011;11664;49.774;8.650;2023-04-03T03:44:18;6.43;;;5.93;;
22995;SDS011;11664;49.774;8.650;2023-04-03T03:46:48;4.75;;;4.43;;
22995;SDS011;11664;49.774;8.650;2023-04-03T03:49:16;5.05;;;4.65;;
22995;SDS011;11664;49.774;8.650;2023-04-03T03:51:48;4.38;;;4.05;;
22995;SDS011;11664;49.774;8.650;2023-04-03T03:54:14;6.55;;;5.20;;
22995;SDS011;11664;49.774;8.650;2023-04-03T03:56:40;9.27;;;5.63;;
22995;SDS011;11664;49.774;8.650;2023-04-03T03:59:10;7.45;;;6.70;;
22995;SDS011;11664;49.774;8.650;2023-04-03T04:04:27;6.38;;;5.90;;
22995;SDS011;11664;49.774;8.650;2023-04-03T04:06:53;5.28;;;4.88;;
22995;SDS011;11664;49.774;8.650;2023-04-03T04:09:21;5.00;;;4.60;;
22995;SDS011;11664;49.774;8.650;2023-04-03T04:11:47;4.55;;;4.25;;
22995;SDS011;11664;49.774;8.650;2023-04-03T04:14:12;6.70;;;6.13;;
22995;SDS011;11664;49.774;8.650;2023-04-03T04:16:47;10.48;;;9.77;;
22995;SDS011;11664;49.774;8.650;2023-04-03T04:19:13;9.23;;;5.38;;
22995;SDS011;11664;49.774;8.650;2023-04-03T04:21:39;8.30;;;7.55;;
22995;SDS011;11664;49.774;8.650;2023-04-03T04:24:06;6.43;;;5.90;;
22995;SDS011;11664;49.774;8.650;2023-04-03T04:26:32;5.90;;;5.45;;
22995;SDS011;11664;49.774;8.650;2023-04-03T04:29:08;5.55;;;5.05;;
22995;SDS011;11664;49.774;8.650;2023-04-03T04:31:38;9.60;;;8.70;;
22995;SDS011;11664;49.774;8.650;2023-04-03T04:34:03;8.88;;;5.95;;
22995;SDS011;11664;49.774;8.650;2023-04-03T04:36:28;6.32;;;5.47;;
22995;SDS011;11664;49.774;8.650;2023-04-03T04:39:00;6.65;;;6.13;;
22995;SDS011;11664;49.774;8.650;2023-04-03T04:41:43;8.00;;;7.40;;
22995;SDS011;11664;49.774;8.650;2023-04-03T04:44:09;6.30;;;5.18;;
22995;SDS011;11664;49.774;8.650;2023-04-03T04:46:35;5.57;;;5.07;;
22995;SDS011;11664;49.774;8.650;2023-04-03T04:49:18;6.45;;;5.95;;
22995;SDS011;11664;49.774;8.650;2023-04-03T04:51:50;5.55;;;4.95;;
22995;SDS011;11664;49.774;8.650;2023-04-03T04:54:15;4.90;;;4.50;;
22995;SDS011;11664;49.774;8.650;2023-04-03T04:56:44;18.83;;;5.95;;
22995;SDS011;11664;49.774;8.650;2023-04-03T04:59:19;6.15;;;5.57;;
22995;SDS011;11664;49.774;8.650;2023-04-03T05:01:44;7.35;;;6.85;;
22995;SDS011;11664;49.774;8.650;2023-04-03T05:04:13;5.40;;;5.10;;
22995;SDS011;11664;49.774;8.650;2023-04-03T05:06:45;9.25;;;8.68;;
22995;SDS011;11664;49.774;8.650;2023-04-03T05:09:10;7.32;;;6.82;;
22995;SDS011;11664;49.774;8.650;2023-04-03T05:11:42;8.98;;;5.78;;
22995;SDS011;11664;49.774;8.650;2023-04-03T05:14:08;8.07;;;7.38;;
22995;SDS011;11664;49.774;8.650;2023-04-03T05:16:33;9.73;;;9.02;;
22995;SDS011;11664;49.774;8.650;2023-04-03T05:18:59;7.93;;;7.50;;
22995;SDS011;11664;49.774;8.650;2023-04-03T05:21:28;4.97;;;4.57;;
22995;SDS011;11664;49.774;8.650;2023-04-03T05:24:02;7.40;;;5.47;;
22995;SDS011;11664;49.774;8.650;2023-04-03T05:26:29;5.30;;;4.88;;
22995;SDS011;11664;49.774;8.650;2023-04-03T05:28:55;8.48;;;7.68;;
22995;SDS011;11664;49.774;8.650;2023-04-03T05:31:24;8.68;;;7.70;;
22995;SDS011;11664;49.774;8.650;2023-04-03T05:33:56;5.50;;;5.18;;
22995;SDS011;11664;49.774;8.650;2023-04-03T05:36:40;6.80;;;6.28;;
22995;SDS011;11664;49.774;8.650;2023-04-03T05:39:23;5.80;;;5.40;;
22995;SDS011;11664;49.774;8.650;2023-04-03T05:47:36;4.60;;;4.22;;
22995;SDS011;11664;49.774;8.650;2023-04-03T05:50:05;6.68;;;4.13;;
22995;SDS011;11664;49.774;8.650;2023-04-03T05:52:38;5.05;;;4.60;;
22995;SDS011;11664;49.774;8.650;2023-04-03T05:55:06;4.10;;;3.80;;
22995;SDS011;11664;49.774;8.650;2023-04-03T05:57:35;8.68;;;8.10;;
22995;SDS011;11664;49.774;8.650;2023-04-03T06:00:05;8.88;;;8.27;;
22995;SDS011;11664;49.774;8.650;2023-04-03T06:02:44;9.20;;;8.38;;
22995;SDS011;11664;49.774;8.650;2023-04-03T06:05:12;4.60;;;4.30;;
22995;SDS011;11664;49.774;8.650;2023-04-03T06:07:38;6.65;;;4.97;;
22995;SDS011;11664;49.774;8.650;2023-04-03T06:10:11;4.97;;;4.60;;
22995;SDS011;11664;49.774;8.650;2023-04-03T06:12:46;6.32;;;5.93;;
22995;SDS011;11664;49.774;8.650;2023-04-03T06:15:12;7.65;;;7.15;;
22995;SDS011;11664;49.774;8.650;2023-04-03T06:17:38;5.30;;;4.88;;
22995;SDS011;11664;49.774;8.650;2023-04-03T06:20:07;5.10;;;4.70;;
22995;SDS011;11664;49.774;8.650;2023-04-03T06:22:38;4.90;;;4.60;;
22995;SDS011;11664;49.774;8.650;2023-04-03T06:25:07;6.32;;;4.05;;
22995;SDS011;11664;49.774;8.650;2023-04-03T06:27:34;5.22;;;4.93;;
22995;SDS011;11664;49.774;8.650;2023-04-03T06:29:59;7.78;;;6.88;;
22995;SDS011;11664;49.774;8.650;2023-04-03T06:32:27;5.90;;;5.35;;
22995;SDS011;11664;49.774;8.650;2023-04-03T06:34:53;5.40;;;5.07;;
22995;SDS011;11664;49.774;8.650;2023-04-03T06:37:24;6.43;;;5.75;;
22995;SDS011;11664;49.774;8.650;2023-04-03T06:39:56;7.07;;;6.13;;
22995;SDS011;11664;49.774;8.650;2023-04-03T06:42:25;6.47;;;5.80;;
22995;SDS011;11664;49.774;8.650;2023-04-03T06:45:03;5.70;;;5.32;;
22995;SDS011;11664;49.774;8.650;2023-04-03T06:47:32;4.20;;;3.90;;
22995;SDS011;11664;49.774;8.650;2023-04-03T06:50:01;6.70;;;4.35;;
22995;SDS011;11664;49.774;8.650;2023-04-03T06:52:26;4.38;;;4.07;;
22995;SDS011;11664;49.774;8.650;2023-04-03T06:54:52;5.68;;;4.55;;
22995;SDS011;11664;49.774;8.650;2023-04-03T06:57:22;5.20;;;4.80;;
22995;SDS011;11664;49.774;8.650;2023-04-03T06:59:47;6.32;;;4.78;;
22995;SDS011;11664;49.774;8.650;2023-04-03T07:02:13;5.25;;;4.45;;
22995;SDS011;11664;49.774;8.650;2023-04-03T07:04:38;12.95;;;5.10;;
22995;SDS011;11664;49.774;8.650;2023-04-03T07:07:04;4.85;;;4.20;;
22995;SDS011;11664;49.774;8.650;2023-04-03T07:09:29;4.35;;;3.78;;
22995;SDS011;11664;49.774;8.650;2023-04-03T07:11:55;5.30;;;4.80;;
22995;SDS011;11664;49.774;8.650;2023-04-03T07:14:20;7.25;;;5.22;;
22995;SDS011;11664;49.774;8.650;2023-04-03T07:16:46;5.43;;;5.03;;
22995;SDS011;11664;49.774;8.650;2023-04-03T07:19:12;5.90;;;5.30;;
22995;SDS011;11664;49.774;8.650;2023-04-03T07:21:37;5.22;;;4.93;;
22995;SDS011;11664;49.774;8.650;2023-04-03T07:24:03;5.30;;;4.90;;
22995;SDS011;11664;49.774;8.650;2023-04-03T07:26:29;5.22;;;4.72;;
22995;SDS011;11664;49.774;8.650;2023-04-03T07:32:32;3.92;;;3.63;;
22995;SDS011;11664;49.774;8.650;2023-04-03T07:34:58;5.00;;;4.40;;
22995;SDS011;11664;49.774;8.650;2023-04-03T07:37:23;5.43;;;4.80;;
22995;SDS011;11664;49.774;8.650;2023-04-03T07:39:49;5.22;;;4.82;;
22995;SDS011;11664;49.774;8.650;2023-04-03T07:42:15;5.72;;;5.30;;
22995;SDS011;11664;49.774;8.650;2023-04-03T07:44:41;3.95;;;3.75;;
22995;SDS011;11664;49.774;8.650;2023-04-03T07:47:06;4.65;;;4.10;;
22995;SDS011;11664;49.774;8.650;2023-04-03T07:49:32;5.15;;;3.80;;
22995;SDS011;11664;49.774;8.650;2023-04-03T07:51:59;7.95;;;3.65;;
22995;SDS011;11664;49.774;8.650;2023-04-03T07:54:25;5.40;;;4.13;;
22995;SDS011;11664;49.774;8.650;2023-04-03T07:56:50;4.90;;;4.45;;
22995;SDS011;11664;49.774;8.650;2023-04-03T07:59:16;4.07;;;3.78;;
22995;SDS011;11664;49.774;8.650;2023-04-03T08:01:41;4.00;;;3.53;;
22995;SDS011;11664;49.774;8.650;2023-04-03T08:04:07;5.05;;;4.03;;
22995;SDS011;11664;49.774;8.650;2023-04-03T08:06:32;4.20;;;3.80;;
22995;SDS011;11664;49.774;8.650;2023-04-03T08:09:00;3.55;;;3.35;;
22995;SDS011;11664;49.774;8.650;2023-04-03T08:11:27;5.53;;;3.80;;
22995;SDS011;11664;49.774;8.650;2023-04-03T08:13:53;8.48;;;4.10;;
22995;SDS011;11664;49.774;8.650;2023-04-03T08:16:20;3.88;;;3.45;;
22995;SDS011;11664;49.774;8.650;2023-04-03T08:18:48;4.13;;;3.40;;
22995;SDS011;11664;49.774;8.650;2023-04-03T08:21:14;3.80;;;3.50;;
22995;SDS011;11664;49.774;8.650;2023-04-03T08:23:40;6.68;;;3.53;;
22995;SDS011;11664;49.774;8.650;2023-04-03T08:26:07;4.20;;;3.90;;
22995;SDS011;11664;49.774;8.650;2023-04-03T08:28:34;5.68;;;3.78;;
22995;SDS011;11664;49.774;8.650;2023-04-03T08:31:03;4.68;;;3.60;;
22995;SDS011;11664;49.774;8.650;2023-04-03T08:33:31;3.80;;;3.60;;
22995;SDS011;11664;49.774;8.650;2023-04-03T08:35:57;4.38;;;3.75;;
22995;SDS011;11664;49.774;8.650;2023-04-03T08:38:22;4.53;;;4.20;;
22995;SDS011;11664;49.774;8.650;2023-04-03T08:40:59;5.93;;;5.13;;
22995;SDS011;11664;49.774;8.650;2023-04-03T08:46:09;5.47;;;4.15;;
22995;SDS011;11664;49.774;8.650;2023-04-03T08:48:41;4.90;;;4.50;;
22995;SDS011;11664;49.774;8.650;2023-04-03T08:51:13;4.07;;;3.78;;
22995;SDS011;11664;49.774;8.650;2023-04-03T08:53:43;9.13;;;5.80;;
22995;SDS011;11664;49.774;8.650;2023-04-03T08:56:30;7.05;;;3.83;;
22995;SDS011;11664;49.774;8.650;2023-04-03T08:58:59;4.43;;;3.92;;
22995;SDS011;11664;49.774;8.650;2023-04-03T09:04:00;4.85;;;4.32;;
22995;SDS011;11664;49.774;8.650;2023-04-03T09:06:26;4.40;;;3.88;;
22995;SDS011;11664;49.774;8.650;2023-04-03T09:14:39;6.72;;;6.13;;
22995;SDS011;11664;49.774;8.650;2023-04-03T09:17:32;5.50;;;5.05;;
22995;SDS011;11664;49.774;8.650;2023-04-03T09:22:35;5.97;;;5.60;;
22995;SDS011;11664;49.774;8.650;2023-04-03T09:27:43;5.63;;;5.20;;
22995;SDS011;11664;49.774;8.650;2023-04-03T09:30:13;5.80;;;5.22;;
22995;SDS011;11664;49.774;8.650;2023-04-03T09:32:47;6.07;;;5.47;;
22995;SDS011;11664;49.774;8.650;2023-04-03T09:35:27;5.35;;;5.00;;
22995;SDS011;11664;49.774;8.650;2023-04-03T09:40:50;11.23;;;8.25;;
22995;SDS011;11664;49.774;8.650;2023-04-03T09:43:33;6.82;;;4.82;;
22995;SDS011;11664;49.774;8.650;2023-04-03T09:46:17;5.43;;;4.78;;
22995;SDS011;11664;49.774;8.650;2023-04-03T09:49:00;5.30;;;5.00;;
22995;SDS011;11664;49.774;8.650;2023-04-03T09:51:29;5.47;;;4.47;;
22995;SDS011;11664;49.774;8.650;2023-04-03T09:53:56;24.35;;;12.52;;
22995;SDS011;11664;49.774;8.650;2023-04-03T09:56:28;6.93;;;6.38;;
22995;SDS011;11664;49.774;8.650;2023-04-03T10:01:28;5.05;;;4.68;;
22995;SDS011;11664;49.774;8.650;2023-04-03T10:06:36;3.97;;;3.40;;
22995;SDS011;11664;49.774;8.650;2023-04-03T10:09:29;5.07;;;3.70;;
22995;SDS011;11664;49.774;8.650;2023-04-03T10:14:35;3.75;;;3.47;;
22995;SDS011;11664;49.774;8.650;2023-04-03T10:19:39;4.95;;;4.75;;
22995;SDS011;11664;49.774;8.650;2023-04-03T10:22:18;5.45;;;5.10;;
22995;SDS011;11664;49.774;8.650;2023-04-03T10:28:01;4.57;;;4.22;;
22995;SDS011;11664;49.774;8.650;2023-04-03T10:30:37;5.30;;;4.82;;
22995;SDS011;11664;49.774;8.650;2023-04-03T10:33:18;4.80;;;4.50;;
22995;SDS011;11664;49.774;8.650;2023-04-03T10:38:57;5.05;;;4.57;;
22995;SDS011;11664;49.774;8.650;2023-04-03T10:46:53;6.03;;;5.18;;
22995;SDS011;11664;49.774;8.650;2023-04-03T10:49:39;5.50;;;5.00;;
22995;SDS011;11664;49.774;8.650;2023-04-03T10:57:46;7.10;;;5.10;;
22995;SDS011;11664;49.774;8.650;2023-04-03T11:00:21;5.05;;;4.72;;
22995;SDS011;11664;49.774;8.650;2023-04-03T11:03:03;8.15;;;7.65;;
22995;SDS011;11664;49.774;8.650;2023-04-03T11:05:52;4.90;;;4.50;;
22995;SDS011;11664;49.774;8.650;2023-04-03T11:08:32;6.40;;;5.38;;
22995;SDS011;11664;49.774;8.650;2023-04-03T11:11:05;4.97;;;4.68;;
22995;SDS011;11664;49.774;8.650;2023-04-03T11:13:37;4.55;;;3.88;;
22995;SDS011;11664;49.774;8.650;2023-04-03T11:16:05;3.42;;;3.10;;
22995;SDS011;11664;49.774;8.650;2023-04-03T11:18:37;3.67;;;3.47;;
22995;SDS011;11664;49.774;8.650;2023-04-03T11:21:12;3.75;;;3.40;;
22995;SDS011;11664;49.774;8.650;2023-04-03T11:26:29;3.90;;;3.60;;
22995;SDS011;11664;49.774;8.650;2023-04-03T11:29:05;3.80;;;3.50;;
22995;SDS011;11664;49.774;8.650;2023-04-03T11:34:40;5.20;;;3.80;;
22995;SDS011;11664;49.774;8.650;2023-04-03T11:40:04;3.80;;;3.47;;
22995;SDS011;11664;49.774;8.650;2023-04-03T11:42:41;3.50;;;3.20;;
22995;SDS011;11664;49.774;8.650;2023-04-03T11:47:59;3.45;;;3.15;;
22995;SDS011;11664;49.774;8.650;2023-04-03T11:58:18;4.78;;;4.38;;
22995;SDS011;11664;49.774;8.650;2023-04-03T12:00:48;5.03;;;4.70;;
22995;SDS011;11664;49.774;8.650;2023-04-03T12:16:23;4.40;;;3.17;;
22995;SDS011;11664;49.774;8.650;2023-04-03T12:41:11;4.07;;;3.72;;
22995;SDS011;11664;49.774;8.650;2023-04-03T12:47:16;4.28;;;3.97;;
22995;SDS011;11664;49.774;8.650;2023-04-03T12:49:50;4.30;;;3.90;;
22995;SDS011;11664;49.774;8.650;2023-04-03T12:58:53;3.97;;;3.03;;
22995;SDS011;11664;49.774;8.650;2023-04-03T13:01:21;3.15;;;2.95;;
22995;SDS011;11664;49.774;8.650;2023-04-03T13:03:56;3.78;;;3.45;;
22995;SDS011;11664;49.774;8.650;2023-04-03T13:08:57;3.63;;;3.22;;
22995;SDS011;11664;49.774;8.650;2023-04-03T13:13:55;3.55;;;3.00;;
22995;SDS011;11664;49.774;8.650;2023-04-03T13:16:40;3.60;;;3.40;;
22995;SDS011;11664;49.774;8.650;2023-04-03T13:19:06;4.05;;;3.75;;
22995;SDS011;11664;49.774;8.650;2023-04-03T13:21:44;4.35;;;3.95;;
22995;SDS011;11664;49.774;8.650;2023-04-03T13:24:10;4.13;;;3.30;;
22995;SDS011;11664;49.774;8.650;2023-04-03T13:26:36;3.90;;;3.38;;
22995;SDS011;11664;49.774;8.650;2023-04-03T13:29:05;3.70;;;3.40;;
22995;SDS011;11664;49.774;8.650;2023-04-03T13:31:42;4.00;;;3.50;;
22995;SDS011;11664;49.774;8.650;2023-04-03T13:34:18;2.95;;;2.75;;
22995;SDS011;11664;49.774;8.650;2023-04-03T13:36:54;3.42;;;3.22;;
22995;SDS011;11664;49.774;8.650;2023-04-03T13:39:24;3.42;;;3.13;;
22995;SDS011;11664;49.774;8.650;2023-04-03T13:41:52;4.00;;;3.20;;
22995;SDS011;11664;49.774;8.650;2023-04-03T13:46:47;4.32;;;3.83;;
22995;SDS011;11664;49.774;8.650;2023-04-03T13:49:42;3.42;;;3.22;;
22995;SDS011;11664;49.774;8.650;2023-04-03T13:52:27;3.40;;;3.10;;
22995;SDS011;11664;49.774;8.650;2023-04-03T13:55:01;3.33;;;3.05;;
22995;SDS011;11664;49.774;8.650;2023-04-03T14:03:57;3.20;;;2.90;;
22995;SDS011;11664;49.774;8.650;2023-04-03T14:06:26;3.40;;;3.20;;
22995;SDS011;11664;49.774;8.650;2023-04-03T14:08:52;2.90;;;2.80;;
22995;SDS011;11664;49.774;8.650;2023-04-03T14:11:22;3.88;;;3.45;;
22995;SDS011;11664;49.774;8.650;2023-04-03T14:13:51;3.47;;;2.70;;
22995;SDS011;11664;49.774;8.650;2023-04-03T14:16:19;3.42;;;3.22;;
22995;SDS011;11664;49.774;8.650;2023-04-03T14:18:47;4.10;;;3.47;;
22995;SDS011;11664;49.774;8.650;2023-04-03T14:21:15;3.38;;;3.17;;
22995;SDS011;11664;49.774;8.650;2023-04-03T14:23:41;3.05;;;2.85;;
22995;SDS011;11664;49.774;8.650;2023-04-03T14:26:11;3.78;;;3.03;;
22995;SDS011;11664;49.774;8.650;2023-04-03T14:28:39;3.20;;;3.00;;
22995;SDS011;11664;49.774;8.650;2023-04-03T14:31:05;3.08;;;2.92;;
22995;SDS011;11664;49.774;8.650;2023-04-03T14:33:31;3.33;;;3.05;;
22995;SDS011;11664;49.774;8.650;2023-04-03T14:36:00;3.30;;;3.10;;
22995;SDS011;11664;49.774;8.650;2023-04-03T14:38:28;5.68;;;3.85;;
22995;SDS011;11664;49.774;8.650;2023-04-03T14:40:55;3.22;;;3.03;;
22995;SDS011;11664;49.774;8.650;2023-04-03T14:43:22;3.25;;;2.97;;
22995;SDS011;11664;49.774;8.650;2023-04-03T14:45:48;3.88;;;3.67;;
22995;SDS011;11664;49.774;8.650;2023-04-03T14:48:17;3.63;;;3.42;;
22995;SDS011;11664;49.774;8.650;2023-04-03T14:50:45;3.55;;;3.35;;
22995;SDS011;11664;49.774;8.650;2023-04-03T14:53:12;4.28;;;4.00;;
22995;SDS011;11664;49.774;8.650;2023-04-03T14:55:39;3.65;;;3.35;;
22995;SDS011;11664;49.774;8.650;2023-04-03T14:58:12;3.60;;;3.22;;
22995;SDS011;11664;49.774;8.650;2023-04-03T15:00:40;3.63;;;3.42;;
22995;SDS011;11664;49.774;8.650;2023-04-03T15:03:05;3.53;;;3.33;;
22995;SDS011;11664;49.774;8.650;2023-04-03T15:05:31;3.85;;;3.47;;
22995;SDS011;11664;49.774;8.650;2023-04-03T15:07:57;3.20;;;3.00;;
22995;SDS011;11664;49.774;8.650;2023-04-03T15:10:26;3.35;;;3.03;;
22995;SDS011;11664;49.774;8.650;2023-04-03T15:12:54;2.90;;;2.72;;
22995;SDS011;11664;49.774;8.650;2023-04-03T15:15:21;3.22;;;2.92;;
22995;SDS011;11664;49.774;8.650;2023-04-03T15:17:50;3.25;;;3.05;;
22995;SDS011;11664;49.774;8.650;2023-04-03T15:20:25;4.43;;;4.03;;
22995;SDS011;11664;49.774;8.650;2023-04-03T15:22:51;4.20;;;3.80;;
22995;SDS011;11664;49.774;8.650;2023-04-03T15:25:17;3.08;;;2.83;;
22995;SDS011;11664;49.774;8.650;2023-04-03T15:27:43;2.83;;;2.70;;
22995;SDS011;11664;49.774;8.650;2023-04-03T15:30:17;3.85;;;3.55;;
22995;SDS011;11664;49.774;8.650;2023-04-03T15:32:44;3.20;;;3.00;;
22995;SDS011;11664;49.774;8.650;2023-04-03T15:35:10;3.80;;;3.58;;
22995;SDS011;11664;49.774;8.650;2023-04-03T15:37:39;4.13;;;3.90;;
22995;SDS011;11664;49.774;8.650;2023-04-03T15:40:05;3.92;;;3.72;;
22995;SDS011;11664;49.774;8.650;2023-04-03T15:42:31;4.05;;;3.75;;
22995;SDS011;11664;49.774;8.650;2023-04-03T15:44:57;4.10;;;3.88;;
22995;SDS011;11664;49.774;8.650;2023-04-03T15:47:22;4.60;;;4.25;;
22995;SDS011;11664;49.774;8.650;2023-04-03T15:49:49;5.20;;;3.92;;
22995;SDS011;11664;49.774;8.650;2023-04-03T15:55:38;2.90;;;2.70;;
22995;SDS011;11664;49.774;8.650;2023-04-03T15:58:03;3.47;;;3.17;;
22995;SDS011;11664;49.774;8.650;2023-04-03T16:00:29;4.13;;;3.72;;
22995;SDS011;11664;49.774;8.650;2023-04-03T16:03:00;3.58;;;3.38;;
22995;SDS011;11664;49.774;8.650;2023-04-03T16:05:30;3.92;;;3.58;;
22995;SDS011;11664;49.774;8.650;2023-04-03T16:07:56;4.63;;;4.05;;
22995;SDS011;11664;49.774;8.650;2023-04-03T16:10:24;4.60;;;4.20;;
22995;SDS011;11664;49.774;8.650;2023-04-03T16:12:49;3.35;;;3.05;;
22995;SDS011;11664;49.774;8.650;2023-04-03T16:15:16;4.93;;;3.38;;
22995;SDS011;11664;49.774;8.650;2023-04-03T16:17:42;3.15;;;2.95;;
22995;SDS011;11664;49.774;8.650;2023-04-03T16:20:08;4.40;;;4.00;;
22995;SDS011;11664;49.774;8.650;2023-04-03T16:22:36;5.60;;;3.28;;
22995;SDS011;11664;49.774;8.650;2023-04-03T16:25:03;3.00;;;2.80;;
22995;SDS011;11664;49.774;8.650;2023-04-03T16:27:30;3.47;;;3.28;;
22995;SDS011;11664;49.774;8.650;2023-04-03T16:29:56;4.68;;;3.47;;
22995;SDS011;11664;49.774;8.650;2023-04-03T16:32:22;3.90;;;3.30;;
22995;SDS011;11664;49.774;8.650;2023-04-03T16:34:51;4.15;;;3.67;;
22995;SDS011;11664;49.774;8.650;2023-04-03T16:37:17;3.45;;;3.25;;
22995;SDS011;11664;49.774;8.650;2023-04-03T16:39:43;4.68;;;3.20;;
22995;SDS011;11664;49.774;8.650;2023-04-03T16:42:09;4.60;;;3.85;;
22995;SDS011;11664;49.774;8.650;2023-04-03T16:44:35;3.00;;;2.90;;
22995;SDS011;11664;49.774;8.650;2023-04-03T16:47:01;6.68;;;4.22;;
22995;SDS011;11664;49.774;8.650;2023-04-03T16:49:28;7.07;;;3.75;;
22995;SDS011;11664;49.774;8.650;2023-04-03T16:51:57;3.33;;;3.00;;
22995;SDS011;11664;49.774;8.650;2023-04-03T16:54:23;4.95;;;3.28;;
22995;SDS011;11664;49.774;8.650;2023-04-03T16:56:49;3.20;;;3.00;;
22995;SDS011;11664;49.774;8.650;2023-04-03T16:59:15;5.05;;;3.25;;
22995;SDS011;11664;49.774;8.650;2023-04-03T17:01:40;3.90;;;3.60;;
22995;SDS011;11664;49.774;8.650;2023-04-03T17:04:06;3.40;;;3.10;;
22995;SDS011;11664;49.774;8.650;2023-04-03T17:06:31;3.30;;;3.10;;
22995;SDS011;11664;49.774;8.650;2023-04-03T17:08:57;4.00;;;3.70;;
22995;SDS011;11664;49.774;8.650;2023-04-03T17:11:23;4.38;;;3.25;;
22995;SDS011;11664;49.774;8.650;2023-04-03T17:13:48;4.75;;;3.15;;
22995;SDS011;11664;49.774;8.650;2023-04-03T17:16:14;3.30;;;3.00;;
22995;SDS011;11664;49.774;8.650;2023-04-03T17:18:40;3.78;;;3.35;;
22995;SDS011;11664;49.774;8.650;2023-04-03T17:21:07;3.95;;;3.20;;
22995;SDS011;11664;49.774;8.650;2023-04-03T17:23:33;4.10;;;3.30;;
22995;SDS011;11664;49.774;8.650;2023-04-03T17:26:00;4.57;;;3.00;;
22995;SDS011;11664;49.774;8.650;2023-04-03T17:28:26;3.33;;;3.13;;
22995;SDS011;11664;49.774;8.650;2023-04-03T17:31:02;3.20;;;2.90;;
22995;SDS011;11664;49.774;8.650;2023-04-03T17:33:28;3.10;;;2.90;;
22995;SDS011;11664;49.774;8.650;2023-04-03T17:35:57;3.40;;;3.10;;
22995;SDS011;11664;49.774;8.650;2023-04-03T17:38:25;3.67;;;2.78;;
22995;SDS011;11664;49.774;8.650;2023-04-03T17:40:51;3.42;;;3.13;;
22995;SDS011;11664;49.774;8.650;2023-04-03T17:43:20;4.13;;;2.88;;
22995;SDS011;11664;49.774;8.650;2023-04-03T17:45:45;3.65;;;3.33;;
22995;SDS011;11664;49.774;8.650;2023-04-03T17:48:11;4.80;;;3.20;;